sensor_id;sensor_type;location;lat;lon;timestamp;P1;durP1;ratioP1;P2;durP2;ratioP2
74231;SDS011;62590;52.430;4.902;2022-11-20T08:24:56;33.78;;;13.00;;
74231;SDS011;62590;52.430;4.902;2022-11-20T08:27:22;37.17;;;14.05;;
74231;SDS011;62590;52.430;4.902;2022-11-20T08:29:48;30.10;;;12.90;;
74231;SDS011;62590;52.430;4.902;2022-11-20T08:32:13;37.30;;;13.57;;
74231;SDS011;62590;52.430;4.902;2022-11-20T08:34:38;31.60;;;14.00;;
74231;SDS011;62590;52.430;4.902;2022-11-20T08:37:04;36.80;;;13.60;;
74231;SDS011;62590;52.430;4.902;2022-11-20T08:39:29;41.58;;;14.38;;
74231;SDS011;62590;52.430;4.902;2022-11-20T08:41:54;38.33;;;15.20;;
74231;SDS011;62590;52.430;4.902;2022-11-20T08:44:20;41.95;;;15.85;;
74231;SDS011;62590;52.430;4.902;2022-11-20T08:46:45;39.85;;;15.90;;
74231;SDS011;62590;52.430;4.902;2022-11-20T08:49:12;36.25;;;14.60;;
74231;SDS011;62590;52.430;4.902;2022-11-20T08:51:39;37.47;;;14.48;;
74231;SDS011;62590;52.430;4.902;2022-11-20T08:54:04;35.83;;;14.15;;
74231;SDS011;62590;52.430;4.902;2022-11-20T08:56:31;36.85;;;14.80;;
74231;SDS011;62590;52.430;4.902;2022-11-20T08:58:56;37.78;;;15.02;;
74231;SDS011;62590;52.430;4.902;2022-11-20T09:01:24;36.53;;;15.93;;
74231;SDS011;62590;52.430;4.902;2022-11-20T09:03:49;41.20;;;15.60;;
74231;SDS011;62590;52.430;4.902;2022-11-20T09:06:15;34.70;;;14.95;;
74231;SDS011;62590;52.430;4.902;2022-11-20T09:08:41;39.90;;;15.23;;
74231;SDS011;62590;52.430;4.902;2022-11-20T09:11:06;36.60;;;14.15;;
74231;SDS011;62590;52.430;4.902;2022-11-20T09:13:32;40.40;;;15.32;;
74231;SDS011;62590;52.430;4.902;2022-11-20T09:16:00;35.15;;;15.18;;
74231;SDS011;62590;52.430;4.902;2022-11-20T09:18:31;33.85;;;14.27;;
74231;SDS011;62590;52.430;4.902;2022-11-20T09:21:00;33.47;;;14.73;;
74231;SDS011;62590;52.430;4.902;2022-11-20T09:23:30;36.75;;;14.40;;
74231;SDS011;62590;52.430;4.902;2022-11-20T09:25:57;43.20;;;15.55;;
74231;SDS011;62590;52.430;4.902;2022-11-20T09:28:25;29.90;;;13.25;;
74231;SDS011;62590;52.430;4.902;2022-11-20T09:30:51;35.08;;;14.40;;
74231;SDS011;62590;52.430;4.902;2022-11-20T09:33:16;31.60;;;13.63;;
74231;SDS011;62590;52.430;4.902;2022-11-20T09:35:42;36.72;;;14.80;;
74231;SDS011;62590;52.430;4.902;2022-11-20T09:38:09;35.10;;;14.20;;
74231;SDS011;62590;52.430;4.902;2022-11-20T09:40:36;29.55;;;12.85;;
74231;SDS011;62590;52.430;4.902;2022-11-20T09:46:13;33.50;;;14.23;;
74231;SDS011;62590;52.430;4.902;2022-11-20T09:51:28;30.15;;;13.05;;
74231;SDS011;62590;52.430;4.902;2022-11-20T09:54:31;29.77;;;13.07;;
74231;SDS011;62590;52.430;4.902;2022-11-20T09:57:21;28.65;;;12.50;;
74231;SDS011;62590;52.430;4.902;2022-11-20T09:59:59;33.20;;;12.90;;
74231;SDS011;62590;52.430;4.902;2022-11-20T10:02:31;30.88;;;12.82;;
74231;SDS011;62590;52.430;4.902;2022-11-20T10:05:06;29.60;;;12.90;;
74231;SDS011;62590;52.430;4.902;2022-11-20T10:07:45;33.85;;;13.73;;
74231;SDS011;62590;52.430;4.902;2022-11-20T10:13:10;35.60;;;14.88;;
74231;SDS011;62590;52.430;4.902;2022-11-20T10:23:16;34.40;;;14.95;;
74231;SDS011;62590;52.430;4.902;2022-11-20T10:31:36;42.00;;;15.80;;
74231;SDS011;62590;52.430;4.902;2022-11-20T10:34:12;34.45;;;14.65;;
74231;SDS011;62590;52.430;4.902;2022-11-20T10:37:09;40.97;;;16.02;;
74231;SDS011;62590;52.430;4.902;2022-11-20T10:39:54;40.80;;;17.05;;
74231;SDS011;62590;52.430;4.902;2022-11-20T10:45:32;42.53;;;15.65;;
74231;SDS011;62590;52.430;4.902;2022-11-20T10:50:32;41.53;;;16.23;;
74231;SDS011;62590;52.430;4.902;2022-11-20T10:55:58;51.03;;;18.45;;
74231;SDS011;62590;52.430;4.902;2022-11-20T10:58:37;43.40;;;16.65;;
74231;SDS011;62590;52.430;4.902;2022-11-20T11:01:15;45.90;;;17.50;;
74231;SDS011;62590;52.430;4.902;2022-11-20T11:03:42;41.95;;;17.63;;
74231;SDS011;62590;52.430;4.902;2022-11-20T11:08:49;45.28;;;17.13;;
74231;SDS011;62590;52.430;4.902;2022-11-20T11:13:49;43.05;;;17.40;;
74231;SDS011;62590;52.430;4.902;2022-11-20T11:16:25;43.17;;;17.38;;
74231;SDS011;62590;52.430;4.902;2022-11-20T11:18:51;43.60;;;17.13;;
74231;SDS011;62590;52.430;4.902;2022-11-20T11:21:29;41.17;;;17.65;;
74231;SDS011;62590;52.430;4.902;2022-11-20T11:24:02;43.75;;;18.05;;
74231;SDS011;62590;52.430;4.902;2022-11-20T11:26:29;45.55;;;16.83;;
74231;SDS011;62590;52.430;4.902;2022-11-20T11:29:02;39.90;;;17.02;;
74231;SDS011;62590;52.430;4.902;2022-11-20T11:31:29;44.40;;;17.63;;
74231;SDS011;62590;52.430;4.902;2022-11-20T11:34:13;44.60;;;17.13;;
74231;SDS011;62590;52.430;4.902;2022-11-20T11:36:40;45.45;;;16.92;;
74231;SDS011;62590;52.430;4.902;2022-11-20T11:39:16;45.25;;;17.02;;
74231;SDS011;62590;52.430;4.902;2022-11-20T11:41:44;39.33;;;16.55;;
74231;SDS011;62590;52.430;4.902;2022-11-20T11:44:18;44.85;;;17.00;;
74231;SDS011;62590;52.430;4.902;2022-11-20T11:47:26;45.42;;;18.80;;
74231;SDS011;62590;52.430;4.902;2022-11-20T11:50:02;49.90;;;20.63;;
74231;SDS011;62590;52.430;4.902;2022-11-20T11:53:12;51.60;;;18.92;;
74231;SDS011;62590;52.430;4.902;2022-11-20T12:01:17;42.72;;;14.82;;
74231;SDS011;62590;52.430;4.902;2022-11-20T12:04:11;46.15;;;18.48;;
74231;SDS011;62590;52.430;4.902;2022-11-20T12:07:15;53.55;;;19.42;;
74231;SDS011;62590;52.430;4.902;2022-11-20T12:09:48;57.67;;;21.25;;
74231;SDS011;62590;52.430;4.902;2022-11-20T12:12:20;68.97;;;21.98;;
74231;SDS011;62590;52.430;4.902;2022-11-20T12:14:49;58.35;;;21.85;;
74231;SDS011;62590;52.430;4.902;2022-11-20T12:17:19;70.43;;;23.30;;
74231;SDS011;62590;52.430;4.902;2022-11-20T12:19:45;73.40;;;23.55;;
74231;SDS011;62590;52.430;4.902;2022-11-20T12:24:56;63.80;;;22.42;;
74231;SDS011;62590;52.430;4.902;2022-11-20T12:30:22;66.50;;;23.38;;
74231;SDS011;62590;52.430;4.902;2022-11-20T12:53:04;59.75;;;20.70;;
74231;SDS011;62590;52.430;4.902;2022-11-20T13:01:37;61.38;;;22.70;;
74231;SDS011;62590;52.430;4.902;2022-11-20T13:06:46;65.03;;;21.88;;
74231;SDS011;62590;52.430;4.902;2022-11-20T13:09:13;68.72;;;22.75;;
74231;SDS011;62590;52.430;4.902;2022-11-20T13:19:36;64.32;;;20.58;;
74231;SDS011;62590;52.430;4.902;2022-11-20T13:22:02;66.25;;;24.00;;
74231;SDS011;62590;52.430;4.902;2022-11-20T13:24:29;63.58;;;21.15;;
74231;SDS011;62590;52.430;4.902;2022-11-20T13:26:59;77.60;;;24.23;;
74231;SDS011;62590;52.430;4.902;2022-11-20T13:29:30;56.10;;;19.75;;
74231;SDS011;62590;52.430;4.902;2022-11-20T13:34:54;59.45;;;20.13;;
74231;SDS011;62590;52.430;4.902;2022-11-20T13:37:30;57.33;;;19.13;;
74231;SDS011;62590;52.430;4.902;2022-11-20T13:45:07;55.15;;;20.02;;
74231;SDS011;62590;52.430;4.902;2022-11-20T13:47:47;49.40;;;20.20;;
74231;SDS011;62590;52.430;4.902;2022-11-20T13:50:14;57.33;;;20.80;;
74231;SDS011;62590;52.430;4.902;2022-11-20T13:52:52;58.40;;;20.77;;
74231;SDS011;62590;52.430;4.902;2022-11-20T14:00:57;60.50;;;21.85;;
74231;SDS011;62590;52.430;4.902;2022-11-20T14:03:28;61.53;;;20.88;;
74231;SDS011;62590;52.430;4.902;2022-11-20T14:05:56;59.75;;;21.83;;
74231;SDS011;62590;52.430;4.902;2022-11-20T14:08:38;51.08;;;20.55;;
74231;SDS011;62590;52.430;4.902;2022-11-20T14:11:18;66.68;;;22.20;;
74231;SDS011;62590;52.430;4.902;2022-11-20T14:13:52;52.17;;;20.92;;
74231;SDS011;62590;52.430;4.902;2022-11-20T14:16:21;54.00;;;20.63;;
74231;SDS011;62590;52.430;4.902;2022-11-20T14:18:47;55.63;;;20.52;;
74231;SDS011;62590;52.430;4.902;2022-11-20T14:21:21;61.63;;;22.45;;
74231;SDS011;62590;52.430;4.902;2022-11-20T14:23:47;51.85;;;19.05;;
74231;SDS011;62590;52.430;4.902;2022-11-20T14:26:14;47.63;;;17.77;;
74231;SDS011;62590;52.430;4.902;2022-11-20T14:28:47;48.35;;;19.17;;
74231;SDS011;62590;52.430;4.902;2022-11-20T14:31:17;59.33;;;20.17;;
74231;SDS011;62590;52.430;4.902;2022-11-20T14:33:49;57.78;;;20.00;;
74231;SDS011;62590;52.430;4.902;2022-11-20T14:36:18;57.40;;;21.05;;
74231;SDS011;62590;52.430;4.902;2022-11-20T14:38:46;56.80;;;21.38;;
74231;SDS011;62590;52.430;4.902;2022-11-20T14:41:19;62.75;;;22.60;;
74231;SDS011;62590;52.430;4.902;2022-11-20T14:43:56;64.70;;;23.13;;
74231;SDS011;62590;52.430;4.902;2022-11-20T14:46:22;66.47;;;22.75;;
74231;SDS011;62590;52.430;4.902;2022-11-20T14:48:57;59.00;;;22.45;;
74231;SDS011;62590;52.430;4.902;2022-11-20T14:51:36;51.25;;;20.80;;
74231;SDS011;62590;52.430;4.902;2022-11-20T14:54:09;70.68;;;24.67;;
74231;SDS011;62590;52.430;4.902;2022-11-20T14:56:41;57.72;;;22.45;;
74231;SDS011;62590;52.430;4.902;2022-11-20T14:59:21;59.13;;;23.40;;
74231;SDS011;62590;52.430;4.902;2022-11-20T15:02:02;56.35;;;22.48;;
74231;SDS011;62590;52.430;4.902;2022-11-20T15:04:30;57.58;;;22.35;;
74231;SDS011;62590;52.430;4.902;2022-11-20T15:06:56;60.70;;;21.55;;
74231;SDS011;62590;52.430;4.902;2022-11-20T15:09:24;56.97;;;23.27;;
74231;SDS011;62590;52.430;4.902;2022-11-20T15:11:59;68.05;;;22.40;;
74231;SDS011;62590;52.430;4.902;2022-11-20T15:14:28;54.80;;;21.10;;
74231;SDS011;62590;52.430;4.902;2022-11-20T15:16:55;60.15;;;22.02;;
74231;SDS011;62590;52.430;4.902;2022-11-20T15:19:22;66.18;;;22.90;;
74231;SDS011;62590;52.430;4.902;2022-11-20T15:21:49;57.97;;;20.73;;
74231;SDS011;62590;52.430;4.902;2022-11-20T15:24:14;58.58;;;21.15;;
74231;SDS011;62590;52.430;4.902;2022-11-20T15:26:40;70.75;;;24.73;;
74231;SDS011;62590;52.430;4.902;2022-11-20T15:29:10;63.35;;;25.65;;
74231;SDS011;62590;52.430;4.902;2022-11-20T15:31:37;65.95;;;24.33;;
74231;SDS011;62590;52.430;4.902;2022-11-20T15:34:10;63.28;;;23.95;;
74231;SDS011;62590;52.430;4.902;2022-11-20T15:36:36;67.55;;;24.02;;
74231;SDS011;62590;52.430;4.902;2022-11-20T15:39:02;71.35;;;22.75;;
74231;SDS011;62590;52.430;4.902;2022-11-20T15:41:27;59.45;;;23.45;;
74231;SDS011;62590;52.430;4.902;2022-11-20T15:43:53;59.80;;;22.45;;
74231;SDS011;62590;52.430;4.902;2022-11-20T15:46:20;63.35;;;23.48;;
74231;SDS011;62590;52.430;4.902;2022-11-20T15:48:51;67.03;;;23.20;;
74231;SDS011;62590;52.430;4.902;2022-11-20T15:53:54;62.70;;;24.95;;
74231;SDS011;62590;52.430;4.902;2022-11-20T15:56:19;61.25;;;22.05;;
74231;SDS011;62590;52.430;4.902;2022-11-20T15:58:45;61.30;;;23.58;;
74231;SDS011;62590;52.430;4.902;2022-11-20T16:01:14;63.28;;;24.38;;
74231;SDS011;62590;52.430;4.902;2022-11-20T16:03:41;59.13;;;22.25;;
74231;SDS011;62590;52.430;4.902;2022-11-20T16:06:07;56.15;;;22.33;;
74231;SDS011;62590;52.430;4.902;2022-11-20T16:08:33;80.03;;;29.02;;
74231;SDS011;62590;52.430;4.902;2022-11-20T16:10:58;73.95;;;28.23;;
74231;SDS011;62590;52.430;4.902;2022-11-20T16:13:24;60.22;;;21.08;;
74231;SDS011;62590;52.430;4.902;2022-11-20T16:16:13;58.55;;;21.23;;
74231;SDS011;62590;52.430;4.902;2022-11-20T16:18:45;52.42;;;18.60;;
74231;SDS011;62590;52.430;4.902;2022-11-20T16:21:11;57.60;;;20.75;;
74231;SDS011;62590;52.430;4.902;2022-11-20T16:23:38;51.42;;;21.40;;
74231;SDS011;62590;52.430;4.902;2022-11-20T16:26:13;50.97;;;19.90;;
74231;SDS011;62590;52.430;4.902;2022-11-20T16:28:43;52.13;;;21.02;;
74231;SDS011;62590;52.430;4.902;2022-11-20T16:31:18;53.47;;;20.65;;
74231;SDS011;62590;52.430;4.902;2022-11-20T16:33:58;52.17;;;20.58;;
74231;SDS011;62590;52.430;4.902;2022-11-20T16:36:26;62.25;;;20.98;;
74231;SDS011;62590;52.430;4.902;2022-11-20T16:38:56;56.05;;;20.92;;
74231;SDS011;62590;52.430;4.902;2022-11-20T16:41:27;56.33;;;21.70;;
74231;SDS011;62590;52.430;4.902;2022-11-20T16:43:55;50.95;;;21.23;;
74231;SDS011;62590;52.430;4.902;2022-11-20T16:46:22;65.45;;;22.10;;
74231;SDS011;62590;52.430;4.902;2022-11-20T16:49:10;58.60;;;22.17;;
74231;SDS011;62590;52.430;4.902;2022-11-20T16:51:37;60.85;;;23.45;;
74231;SDS011;62590;52.430;4.902;2022-11-20T16:54:07;58.92;;;22.92;;
74231;SDS011;62590;52.430;4.902;2022-11-20T16:56:33;42.92;;;18.35;;
74231;SDS011;62590;52.430;4.902;2022-11-20T16:58:59;55.47;;;20.65;;
74231;SDS011;62590;52.430;4.902;2022-11-20T17:01:26;45.15;;;19.10;;
74231;SDS011;62590;52.430;4.902;2022-11-20T17:04:02;45.80;;;18.33;;
74231;SDS011;62590;52.430;4.902;2022-11-20T17:06:40;44.55;;;18.85;;
74231;SDS011;62590;52.430;4.902;2022-11-20T17:09:08;43.55;;;17.65;;
74231;SDS011;62590;52.430;4.902;2022-11-20T17:11:34;48.22;;;17.30;;
74231;SDS011;62590;52.430;4.902;2022-11-20T17:14:01;43.38;;;18.00;;
74231;SDS011;62590;52.430;4.902;2022-11-20T17:16:28;48.35;;;20.33;;
74231;SDS011;62590;52.430;4.902;2022-11-20T17:18:54;50.17;;;19.30;;
74231;SDS011;62590;52.430;4.902;2022-11-20T17:21:21;49.13;;;19.55;;
74231;SDS011;62590;52.430;4.902;2022-11-20T17:23:46;44.72;;;18.48;;
74231;SDS011;62590;52.430;4.902;2022-11-20T17:26:19;54.47;;;19.83;;
74231;SDS011;62590;52.430;4.902;2022-11-20T17:28:57;46.47;;;19.55;;
74231;SDS011;62590;52.430;4.902;2022-11-20T17:31:24;45.40;;;18.58;;
74231;SDS011;62590;52.430;4.902;2022-11-20T17:33:50;49.20;;;19.60;;
74231;SDS011;62590;52.430;4.902;2022-11-20T17:36:16;50.42;;;19.40;;
74231;SDS011;62590;52.430;4.902;2022-11-20T17:38:42;59.83;;;20.85;;
74231;SDS011;62590;52.430;4.902;2022-11-20T17:41:12;50.10;;;19.90;;
74231;SDS011;62590;52.430;4.902;2022-11-20T17:43:39;46.55;;;20.15;;
74231;SDS011;62590;52.430;4.902;2022-11-20T17:46:16;52.03;;;20.05;;
74231;SDS011;62590;52.430;4.902;2022-11-20T17:48:43;55.75;;;21.20;;
74231;SDS011;62590;52.430;4.902;2022-11-20T17:51:12;55.05;;;21.17;;
74231;SDS011;62590;52.430;4.902;2022-11-20T17:53:42;52.30;;;19.88;;
74231;SDS011;62590;52.430;4.902;2022-11-20T17:56:09;54.67;;;21.80;;
74231;SDS011;62590;52.430;4.902;2022-11-20T17:58:52;56.17;;;21.88;;
74231;SDS011;62590;52.430;4.902;2022-11-20T18:01:18;58.33;;;21.27;;
74231;SDS011;62590;52.430;4.902;2022-11-20T18:03:44;58.13;;;21.58;;
74231;SDS011;62590;52.430;4.902;2022-11-20T18:06:20;55.42;;;20.45;;
74231;SDS011;62590;52.430;4.902;2022-11-20T18:08:47;53.78;;;19.00;;
74231;SDS011;62590;52.430;4.902;2022-11-20T18:13:44;60.63;;;22.48;;
74231;SDS011;62590;52.430;4.902;2022-11-20T18:16:30;57.97;;;21.85;;
74231;SDS011;62590;52.430;4.902;2022-11-20T18:18:57;49.72;;;19.48;;
74231;SDS011;62590;52.430;4.902;2022-11-20T18:21:23;55.58;;;20.08;;
74231;SDS011;62590;52.430;4.902;2022-11-20T18:23:50;53.50;;;20.38;;
74231;SDS011;62590;52.430;4.902;2022-11-20T18:26:16;51.80;;;21.95;;
74231;SDS011;62590;52.430;4.902;2022-11-20T18:28:42;49.55;;;19.45;;
74231;SDS011;62590;52.430;4.902;2022-11-20T18:31:08;49.28;;;18.77;;
74231;SDS011;62590;52.430;4.902;2022-11-20T18:33:33;50.13;;;20.23;;
74231;SDS011;62590;52.430;4.902;2022-11-20T18:41:14;49.47;;;20.00;;
74231;SDS011;62590;52.430;4.902;2022-11-20T18:44:04;49.60;;;21.25;;
74231;SDS011;62590;52.430;4.902;2022-11-20T18:46:51;53.53;;;19.85;;
74231;SDS011;62590;52.430;4.902;2022-11-20T18:49:16;55.97;;;21.85;;
74231;SDS011;62590;52.430;4.902;2022-11-20T18:51:42;49.00;;;22.25;;
74231;SDS011;62590;52.430;4.902;2022-11-20T18:54:08;54.08;;;23.45;;
74231;SDS011;62590;52.430;4.902;2022-11-20T18:56:35;53.42;;;21.65;;
74231;SDS011;62590;52.430;4.902;2022-11-20T18:59:01;55.10;;;22.77;;
74231;SDS011;62590;52.430;4.902;2022-11-20T19:01:27;56.35;;;23.73;;
74231;SDS011;62590;52.430;4.902;2022-11-20T19:03:52;58.95;;;22.63;;
74231;SDS011;62590;52.430;4.902;2022-11-20T19:06:18;54.78;;;22.35;;
74231;SDS011;62590;52.430;4.902;2022-11-20T19:08:43;54.45;;;22.65;;
74231;SDS011;62590;52.430;4.902;2022-11-20T19:11:09;60.10;;;23.08;;
74231;SDS011;62590;52.430;4.902;2022-11-20T19:13:36;59.03;;;23.52;;
74231;SDS011;62590;52.430;4.902;2022-11-20T19:16:06;50.10;;;20.95;;
74231;SDS011;62590;52.430;4.902;2022-11-20T19:18:34;55.13;;;22.35;;
74231;SDS011;62590;52.430;4.902;2022-11-20T19:21:09;48.17;;;20.33;;
74231;SDS011;62590;52.430;4.902;2022-11-20T19:23:37;52.78;;;22.35;;
74231;SDS011;62590;52.430;4.902;2022-11-20T19:26:03;56.08;;;21.52;;
74231;SDS011;62590;52.430;4.902;2022-11-20T19:28:32;45.05;;;18.02;;
74231;SDS011;62590;52.430;4.902;2022-11-20T19:31:07;40.42;;;17.23;;
74231;SDS011;62590;52.430;4.902;2022-11-20T19:33:34;45.42;;;17.98;;
74231;SDS011;62590;52.430;4.902;2022-11-20T19:36:07;46.75;;;19.30;;
74231;SDS011;62590;52.430;4.902;2022-11-20T19:38:36;45.42;;;19.92;;
74231;SDS011;62590;52.430;4.902;2022-11-20T19:41:02;50.78;;;21.55;;
74231;SDS011;62590;52.430;4.902;2022-11-20T19:43:28;47.22;;;20.55;;
74231;SDS011;62590;52.430;4.902;2022-11-20T19:45:54;46.88;;;19.65;;
74231;SDS011;62590;52.430;4.902;2022-11-20T19:48:19;46.28;;;19.63;;
74231;SDS011;62590;52.430;4.902;2022-11-20T19:50:45;49.05;;;21.15;;
74231;SDS011;62590;52.430;4.902;2022-11-20T19:53:10;48.83;;;22.02;;
74231;SDS011;62590;52.430;4.902;2022-11-20T19:55:35;53.20;;;21.35;;
74231;SDS011;62590;52.430;4.902;2022-11-20T19:58:01;54.75;;;21.55;;
74231;SDS011;62590;52.430;4.902;2022-11-20T20:00:27;56.13;;;22.85;;
74231;SDS011;62590;52.430;4.902;2022-11-20T20:02:54;50.72;;;21.05;;
74231;SDS011;62590;52.430;4.902;2022-11-20T20:05:20;55.78;;;22.35;;
74231;SDS011;62590;52.430;4.902;2022-11-20T20:07:45;54.33;;;22.50;;
74231;SDS011;62590;52.430;4.902;2022-11-20T20:10:10;53.97;;;22.38;;
74231;SDS011;62590;52.430;4.902;2022-11-20T20:12:36;59.20;;;21.05;;
74231;SDS011;62590;52.430;4.902;2022-11-20T20:15:01;48.63;;;19.95;;
74231;SDS011;62590;52.430;4.902;2022-11-20T20:17:26;46.85;;;20.77;;
74231;SDS011;62590;52.430;4.902;2022-11-20T20:19:52;46.33;;;19.98;;
74231;SDS011;62590;52.430;4.902;2022-11-20T20:22:17;49.17;;;20.40;;
74231;SDS011;62590;52.430;4.902;2022-11-20T20:24:42;50.08;;;22.75;;
74231;SDS011;62590;52.430;4.902;2022-11-20T20:27:08;48.30;;;19.15;;
74231;SDS011;62590;52.430;4.902;2022-11-20T20:29:33;40.38;;;17.60;;
74231;SDS011;62590;52.430;4.902;2022-11-20T20:31:58;49.25;;;18.42;;
74231;SDS011;62590;52.430;4.902;2022-11-20T20:34:24;50.45;;;19.98;;
74231;SDS011;62590;52.430;4.902;2022-11-20T20:36:53;48.60;;;19.60;;
74231;SDS011;62590;52.430;4.902;2022-11-20T20:39:19;55.63;;;22.33;;
74231;SDS011;62590;52.430;4.902;2022-11-20T20:41:44;67.93;;;27.25;;
74231;SDS011;62590;52.430;4.902;2022-11-20T20:44:10;47.67;;;20.92;;
74231;SDS011;62590;52.430;4.902;2022-11-20T20:46:54;48.15;;;20.33;;
74231;SDS011;62590;52.430;4.902;2022-11-20T20:49:19;56.38;;;22.38;;
74231;SDS011;62590;52.430;4.902;2022-11-20T20:51:44;53.83;;;22.75;;
74231;SDS011;62590;52.430;4.902;2022-11-20T20:54:10;55.78;;;22.10;;
74231;SDS011;62590;52.430;4.902;2022-11-20T20:56:35;51.28;;;22.33;;
74231;SDS011;62590;52.430;4.902;2022-11-20T20:59:00;52.17;;;21.58;;
74231;SDS011;62590;52.430;4.902;2022-11-20T21:01:27;53.78;;;21.50;;
74231;SDS011;62590;52.430;4.902;2022-11-20T21:03:53;54.85;;;23.42;;
74231;SDS011;62590;52.430;4.902;2022-11-20T21:06:19;51.65;;;21.13;;
74231;SDS011;62590;52.430;4.902;2022-11-20T21:08:45;55.78;;;21.67;;
74231;SDS011;62590;52.430;4.902;2022-11-20T21:11:19;55.47;;;22.55;;
74231;SDS011;62590;52.430;4.902;2022-11-20T21:13:45;48.67;;;21.88;;
74231;SDS011;62590;52.430;4.902;2022-11-20T21:16:13;53.40;;;21.77;;
74231;SDS011;62590;52.430;4.902;2022-11-20T21:18:39;51.95;;;21.52;;
74231;SDS011;62590;52.430;4.902;2022-11-20T21:21:05;51.92;;;21.65;;
74231;SDS011;62590;52.430;4.902;2022-11-20T21:23:51;49.65;;;19.13;;
74231;SDS011;62590;52.430;4.902;2022-11-20T21:26:17;61.15;;;23.13;;
74231;SDS011;62590;52.430;4.902;2022-11-20T21:28:43;45.47;;;21.73;;
74231;SDS011;62590;52.430;4.902;2022-11-20T21:31:12;53.05;;;22.15;;
74231;SDS011;62590;52.430;4.902;2022-11-20T21:33:40;57.28;;;22.45;;
74231;SDS011;62590;52.430;4.902;2022-11-20T21:36:06;47.08;;;20.80;;
74231;SDS011;62590;52.430;4.902;2022-11-20T21:38:32;46.75;;;19.98;;
74231;SDS011;62590;52.430;4.902;2022-11-20T21:40:59;53.47;;;21.42;;
74231;SDS011;62590;52.430;4.902;2022-11-20T21:43:24;55.28;;;21.45;;
74231;SDS011;62590;52.430;4.902;2022-11-20T21:45:50;50.35;;;21.50;;
74231;SDS011;62590;52.430;4.902;2022-11-20T21:48:16;51.88;;;21.35;;
74231;SDS011;62590;52.430;4.902;2022-11-20T21:50:42;49.80;;;20.10;;
74231;SDS011;62590;52.430;4.902;2022-11-20T21:53:07;49.35;;;19.95;;
74231;SDS011;62590;52.430;4.902;2022-11-20T21:55:32;48.83;;;20.42;;
74231;SDS011;62590;52.430;4.902;2022-11-20T21:57:58;47.50;;;20.83;;
74231;SDS011;62590;52.430;4.902;2022-11-20T22:00:23;53.38;;;21.63;;
74231;SDS011;62590;52.430;4.902;2022-11-20T22:02:48;50.75;;;22.02;;
74231;SDS011;62590;52.430;4.902;2022-11-20T22:05:14;53.35;;;21.98;;
74231;SDS011;62590;52.430;4.902;2022-11-20T22:07:43;55.20;;;21.50;;
74231;SDS011;62590;52.430;4.902;2022-11-20T22:10:09;55.10;;;22.83;;
74231;SDS011;62590;52.430;4.902;2022-11-20T22:12:35;54.72;;;22.00;;
74231;SDS011;62590;52.430;4.902;2022-11-20T22:15:01;49.78;;;21.27;;
74231;SDS011;62590;52.430;4.902;2022-11-20T22:17:26;50.85;;;22.42;;
74231;SDS011;62590;52.430;4.902;2022-11-20T22:20:10;51.05;;;20.80;;
74231;SDS011;62590;52.430;4.902;2022-11-20T22:22:36;49.28;;;20.92;;
74231;SDS011;62590;52.430;4.902;2022-11-20T22:25:03;49.85;;;20.42;;
74231;SDS011;62590;52.430;4.902;2022-11-20T22:27:28;54.75;;;22.02;;
74231;SDS011;62590;52.430;4.902;2022-11-20T22:29:54;47.97;;;20.80;;
74231;SDS011;62590;52.430;4.902;2022-11-20T22:32:19;53.78;;;20.98;;
74231;SDS011;62590;52.430;4.902;2022-11-20T22:34:44;52.90;;;21.27;;
74231;SDS011;62590;52.430;4.902;2022-11-20T22:37:10;54.47;;;21.92;;
74231;SDS011;62590;52.430;4.902;2022-11-20T22:39:36;55.08;;;20.73;;
74231;SDS011;62590;52.430;4.902;2022-11-20T22:42:01;48.92;;;20.00;;
74231;SDS011;62590;52.430;4.902;2022-11-20T22:44:27;47.95;;;19.27;;
74231;SDS011;62590;52.430;4.902;2022-11-20T22:46:52;48.25;;;18.55;;
74231;SDS011;62590;52.430;4.902;2022-11-20T22:49:17;43.65;;;17.38;;
74231;SDS011;62590;52.430;4.902;2022-11-20T22:51:43;41.10;;;16.52;;
74231;SDS011;62590;52.430;4.902;2022-11-20T22:54:11;44.42;;;18.25;;
74231;SDS011;62590;52.430;4.902;2022-11-20T22:56:37;46.58;;;19.95;;
74231;SDS011;62590;52.430;4.902;2022-11-20T22:59:02;47.72;;;19.10;;
74231;SDS011;62590;52.430;4.902;2022-11-20T23:01:29;44.88;;;19.25;;
74231;SDS011;62590;52.430;4.902;2022-11-20T23:03:57;47.55;;;21.17;;
74231;SDS011;62590;52.430;4.902;2022-11-20T23:06:24;44.88;;;18.27;;
74231;SDS011;62590;52.430;4.902;2022-11-20T23:08:49;47.45;;;18.95;;
74231;SDS011;62590;52.430;4.902;2022-11-20T23:11:16;47.15;;;19.83;;
74231;SDS011;62590;52.430;4.902;2022-11-20T23:13:46;45.92;;;18.95;;
74231;SDS011;62590;52.430;4.902;2022-11-20T23:16:17;41.63;;;17.95;;
74231;SDS011;62590;52.430;4.902;2022-11-20T23:18:44;53.75;;;20.20;;
74231;SDS011;62590;52.430;4.902;2022-11-20T23:21:13;44.15;;;19.17;;
74231;SDS011;62590;52.430;4.902;2022-11-20T23:23:40;42.70;;;17.73;;
74231;SDS011;62590;52.430;4.902;2022-11-20T23:26:07;50.30;;;18.90;;
74231;SDS011;62590;52.430;4.902;2022-11-20T23:28:35;45.40;;;19.05;;
74231;SDS011;62590;52.430;4.902;2022-11-20T23:31:01;43.78;;;19.83;;
74231;SDS011;62590;52.430;4.902;2022-11-20T23:33:27;43.13;;;17.55;;
74231;SDS011;62590;52.430;4.902;2022-11-20T23:35:53;43.85;;;18.15;;
74231;SDS011;62590;52.430;4.902;2022-11-20T23:38:18;43.40;;;18.27;;
74231;SDS011;62590;52.430;4.902;2022-11-20T23:40:46;43.13;;;18.63;;
74231;SDS011;62590;52.430;4.902;2022-11-20T23:43:13;37.83;;;17.23;;
74231;SDS011;62590;52.430;4.902;2022-11-20T23:45:39;42.50;;;17.58;;
74231;SDS011;62590;52.430;4.902;2022-11-20T23:48:06;39.72;;;16.98;;
74231;SDS011;62590;52.430;4.902;2022-11-20T23:50:31;40.53;;;17.75;;
74231;SDS011;62590;52.430;4.902;2022-11-20T23:52:57;39.00;;;17.17;;
74231;SDS011;62590;52.430;4.902;2022-11-20T23:55:23;40.22;;;17.55;;
74231;SDS011;62590;52.430;4.902;2022-11-20T23:57:51;40.67;;;16.35;;
